createdAt,value
2023-04-27T00:01:38.629Z,23.1
2023-04-27T00:07:33.326Z,23.1
2023-04-27T00:13:25.049Z,23.1
2023-04-27T00:19:16.385Z,23.1
2023-04-27T00:25:08.064Z,23.1
2023-04-27T00:30:44.066Z,23.1
2023-04-27T00:36:35.035Z,23.1
2023-04-27T00:42:26.183Z,23.1
2023-04-27T00:48:19.646Z,23.1
2023-04-27T00:54:10.605Z,23.1
2023-04-27T01:00:02.212Z,23.1
2023-04-27T01:05:40.434Z,23.1
2023-04-27T01:11:31.911Z,23.5
2023-04-27T01:17:23.997Z,24.8
2023-04-27T01:23:17.217Z,26.3
2023-04-27T01:29:08.530Z,27.7
2023-04-27T01:35:01.294Z,29
2023-04-27T01:40:53.000Z,29.9
2023-04-27T01:46:44.648Z,30.7
2023-04-27T01:52:36.341Z,31.3
2023-04-27T01:58:27.262Z,31.8
2023-04-27T02:04:19.845Z,32.3
2023-04-27T02:09:56.559Z,32.8
2023-04-27T02:15:32.905Z,33.3
2023-04-27T02:21:24.787Z,33.8
2023-04-27T02:27:16.984Z,34.3
2023-04-27T02:33:13.844Z,34.6
2023-04-27T02:39:04.978Z,34.8
2023-04-27T02:44:56.320Z,34.9
2023-04-27T02:50:32.837Z,35
2023-04-27T02:56:23.996Z,35.1
2023-04-27T03:02:16.593Z,35.2
2023-04-27T03:08:10.283Z,35.3
2023-04-27T03:14:04.084Z,35.3
2023-04-27T03:19:56.133Z,35.3
2023-04-27T03:25:47.351Z,35.3
2023-04-27T03:31:23.263Z,35.3
2023-04-27T03:36:59.944Z,35.3
2023-04-27T03:42:36.198Z,35.3
2023-04-27T03:48:27.742Z,35.2
2023-04-27T03:54:18.760Z,35.2
2023-04-27T04:00:10.465Z,35.1
2023-04-27T04:06:04.307Z,35.1
2023-04-27T04:11:55.414Z,35
2023-04-27T04:17:47.103Z,35
2023-04-27T04:23:37.966Z,34.9
2023-04-27T04:29:30.428Z,34.9
2023-04-27T04:35:06.936Z,34.8
2023-04-27T04:40:45.340Z,34.8
2023-04-27T04:46:22.302Z,34.8
2023-04-27T04:52:16.850Z,34.6
2023-04-27T04:58:07.700Z,34.6
2023-04-27T05:04:03.228Z,34.6
2023-04-27T05:09:58.857Z,34.6
2023-04-27T05:15:51.631Z,34.5
2023-04-27T05:21:44.651Z,34.4
2023-04-27T05:27:21.069Z,34.4
2023-04-27T05:33:12.924Z,34.3
2023-04-27T05:38:48.777Z,34.3
2023-04-27T05:44:09.692Z,34.2
2023-04-27T05:49:46.957Z,34.2
2023-04-27T05:55:22.976Z,34.1
2023-04-27T06:01:08.226Z,34.1
2023-04-27T06:06:48.347Z,34
2023-04-27T06:12:24.147Z,33.9
2023-04-27T06:18:00.792Z,33.9
2023-04-27T06:23:37.230Z,33.8
2023-04-27T06:29:29.195Z,33.8
2023-04-27T06:35:21.038Z,33.8
2023-04-27T06:41:13.809Z,33.7
2023-04-27T06:47:06.453Z,33.6
2023-04-27T06:52:57.934Z,33.6
2023-04-27T06:58:52.026Z,33.4
2023-04-27T07:04:45.013Z,33
2023-04-27T07:10:49.004Z,27.7
2023-04-27T07:16:40.273Z,30.8
2023-04-27T07:22:31.889Z,32.6
2023-04-27T07:28:25.135Z,34.1
2023-04-27T07:34:38.041Z,35.4
2023-04-27T07:40:37.512Z,36.6
2023-04-27T07:46:28.971Z,37.9
2023-04-27T07:52:20.773Z,38.9
2023-04-27T07:58:12.433Z,40
2023-04-27T08:04:21.066Z,40.8
2023-04-27T08:10:08.429Z,41.8
2023-04-27T08:15:44.599Z,42.8
2023-04-27T08:20:49.739Z,43.8
2023-04-27T08:25:54.861Z,44.5
2023-04-27T08:31:29.513Z,45.4
2023-04-27T08:36:35.284Z,46.3
2023-04-27T08:42:10.743Z,46.9
2023-04-27T08:47:41.569Z,47.3
2023-04-27T08:53:18.405Z,48.2
2023-04-27T08:59:12.812Z,48.5
2023-04-27T09:05:07.607Z,48.3
2023-04-27T09:11:11.109Z,48.9
2023-04-27T09:17:02.311Z,49.4
2023-04-27T09:22:23.039Z,49.9
2023-04-27T09:27:59.214Z,49.7
2023-04-27T09:33:51.251Z,50.4
2023-04-27T09:39:42.789Z,49.1
2023-04-27T09:45:35.830Z,49.7
2023-04-27T09:51:12.254Z,50.1
2023-04-27T09:57:03.346Z,49.1
2023-04-27T10:03:25.481Z,50
2023-04-27T10:09:17.453Z,49.5
2023-04-27T10:15:08.802Z,50.8
2023-04-27T10:21:03.100Z,51.4
2023-04-27T10:26:56.215Z,51.5
2023-04-27T10:32:47.789Z,50.4
2023-04-27T10:38:39.121Z,51.7
2023-04-27T10:44:46.003Z,50.6
2023-04-27T10:50:37.283Z,51.6
2023-04-27T10:56:13.375Z,50.8
2023-04-27T11:01:58.415Z,51.2
2023-04-27T11:07:52.973Z,50.4
2023-04-27T11:13:28.547Z,49.8
2023-04-27T11:19:20.032Z,49.6
2023-04-27T11:25:11.482Z,49.4
2023-04-27T11:31:03.315Z,48.8
2023-04-27T11:36:42.422Z,49.6
2023-04-27T11:42:17.528Z,48.9
2023-04-27T11:47:54.260Z,48.3
2023-04-27T11:53:16.821Z,47.9
2023-04-27T11:58:38.655Z,47.6
2023-04-27T12:04:08.809Z,48.3
2023-04-27T12:09:56.098Z,49.5
2023-04-27T12:15:32.632Z,50.2
2023-04-27T12:20:54.213Z,49.6
2023-04-27T12:26:48.191Z,49.2
2023-04-27T12:32:09.852Z,49.8
2023-04-27T12:38:01.977Z,49.3
2023-04-27T12:43:53.247Z,49.4
2023-04-27T12:50:13.813Z,49.3
2023-04-27T12:56:20.434Z,48.8
2023-04-27T13:02:13.331Z,48.9
2023-04-27T13:08:07.506Z,48.4
2023-04-27T13:13:59.041Z,48.4
2023-04-27T13:19:57.240Z,48.5
2023-04-27T13:25:49.866Z,48.8
2023-04-27T13:31:41.875Z,48.3
2023-04-27T13:37:47.970Z,47.4
2023-04-27T13:43:39.599Z,47.1
2023-04-27T13:49:16.325Z,46.9
2023-04-27T13:55:07.936Z,46.3
2023-04-27T14:00:59.623Z,45.8
2023-04-27T14:06:53.445Z,45.2
2023-04-27T14:13:00.290Z,44.8
2023-04-27T14:19:04.642Z,44.7
2023-04-27T14:24:57.297Z,44.1
2023-04-27T14:30:48.382Z,43.9
2023-04-27T14:36:39.812Z,43.3
2023-04-27T14:42:32.035Z,42.7
2023-04-27T14:48:49.445Z,41.1
2023-04-27T14:54:40.941Z,38.5
2023-04-27T15:00:32.133Z,39.1
2023-04-27T15:06:25.597Z,35.2
2023-04-27T15:12:17.315Z,36.3
2023-04-27T15:18:09.774Z,34.8
2023-04-27T15:24:01.705Z,33.4
2023-04-27T15:29:55.488Z,32.3
2023-04-27T15:35:47.420Z,31.5
2023-04-27T15:41:39.161Z,30.7
2023-04-27T15:47:16.657Z,30.1
2023-04-27T15:53:21.213Z,29.5
2023-04-27T15:59:15.294Z,29
2023-04-27T16:05:08.860Z,28.5
2023-04-27T16:11:03.851Z,28.2
2023-04-27T16:16:40.178Z,27.9
2023-04-27T16:22:32.087Z,27.6
2023-04-27T16:28:23.600Z,27.3
2023-04-27T16:34:15.633Z,27.1
2023-04-27T16:40:07.135Z,26.9
2023-04-27T16:45:43.857Z,26.8
2023-04-27T16:51:36.398Z,26.6
2023-04-27T16:57:13.030Z,26.5
2023-04-27T17:03:17.359Z,26.4
2023-04-27T17:09:11.011Z,26.3
2023-04-27T17:15:03.025Z,26.2
2023-04-27T17:20:58.100Z,26.1
2023-04-27T17:26:49.942Z,26.1
2023-04-27T17:32:43.717Z,25.9
2023-04-27T17:38:38.735Z,25.9
2023-04-27T17:44:30.555Z,25.8
2023-04-27T17:50:22.271Z,25.8
2023-04-27T17:56:14.520Z,25.8
2023-04-27T18:01:36.293Z,25.7
2023-04-27T18:07:14.455Z,25.7
2023-04-27T18:12:37.740Z,25.6
2023-04-27T18:18:32.826Z,25.6
2023-04-27T18:24:38.781Z,25.6
2023-04-27T18:30:32.691Z,25.6
2023-04-27T18:36:25.264Z,25.5
2023-04-27T18:42:17.034Z,25.5
2023-04-27T18:48:09.120Z,25.5
2023-04-27T18:53:45.867Z,25.4
2023-04-27T18:59:38.005Z,25.4
2023-04-27T19:05:50.969Z,25.4
2023-04-27T19:11:44.484Z,25.4
2023-04-27T19:17:41.699Z,25.3
2023-04-27T19:23:44.822Z,25.3
2023-04-27T19:29:53.697Z,25.3
2023-04-27T19:35:50.413Z,25.2
2023-04-27T19:41:46.666Z,25.2
2023-04-27T19:47:24.201Z,25.2
2023-04-27T19:53:17.958Z,25.1
2023-04-27T19:59:10.954Z,25.1
2023-04-27T20:05:07.317Z,25.1
2023-04-27T20:11:02.494Z,25.1
2023-04-27T20:17:11.845Z,25.1
2023-04-27T20:22:52.201Z,25.1
2023-04-27T20:28:30.524Z,25.1
2023-04-27T20:34:23.475Z,25.1
2023-04-27T20:40:30.685Z,25.1
2023-04-27T20:46:23.047Z,25
2023-04-27T20:51:53.452Z,25.1
2023-04-27T20:57:49.854Z,25
2023-04-27T21:03:42.872Z,25
2023-04-27T21:09:35.768Z,25
2023-04-27T21:15:30.328Z,25
2023-04-27T21:21:36.233Z,24.9
2023-04-27T21:27:36.621Z,24.9
2023-04-27T21:33:31.383Z,24.9
2023-04-27T21:39:23.534Z,24.9
2023-04-27T21:45:15.066Z,24.9
2023-04-27T21:51:07.057Z,24.9
2023-04-27T21:56:43.768Z,24.9
2023-04-27T22:02:38.780Z,24.9
2023-04-27T22:08:31.859Z,24.9
2023-04-27T22:14:07.539Z,24.9
2023-04-27T22:19:59.194Z,24.9
2023-04-27T22:25:50.873Z,24.9
2023-04-27T22:31:56.289Z,24.9
2023-04-27T22:37:55.436Z,24.9
2023-04-27T22:43:46.815Z,24.9
2023-04-27T22:49:37.714Z,24.8
2023-04-27T22:55:28.394Z,24.8
2023-04-27T23:01:19.769Z,24.8
2023-04-27T23:07:12.819Z,24.8
2023-04-27T23:13:04.338Z,24.8
2023-04-27T23:18:56.181Z,24.8
2023-04-27T23:24:54.115Z,24.8
2023-04-27T23:30:45.627Z,24.8
2023-04-27T23:36:37.619Z,24.8
2023-04-27T23:42:13.120Z,24.8
2023-04-27T23:47:49.381Z,24.8
2023-04-27T23:53:40.786Z,24.8
2023-04-27T23:59:17.304Z,24.8
